sensor_id;sensor_type;location;lat;lon;timestamp;pressure;altitude;pressure_sealevel;temperature;humidity
42669;BME280;29384;42.028;21.388;2022-07-22T00:04:11;98523.50;;;23.84;47.75
42669;BME280;29384;42.028;21.388;2022-07-22T00:06:37;98517.50;;;23.88;47.87
42669;BME280;29384;42.028;21.388;2022-07-22T00:09:03;98519.84;;;23.89;47.40
42669;BME280;29384;42.028;21.388;2022-07-22T00:11:28;98517.84;;;23.86;47.56
42669;BME280;29384;42.028;21.388;2022-07-22T00:13:54;98518.69;;;23.78;47.59
42669;BME280;29384;42.028;21.388;2022-07-22T00:16:20;98525.81;;;23.74;47.83
42669;BME280;29384;42.028;21.388;2022-07-22T00:18:45;98520.56;;;23.65;47.93
42669;BME280;29384;42.028;21.388;2022-07-22T00:21:11;98529.19;;;23.50;48.15
42669;BME280;29384;42.028;21.388;2022-07-22T00:23:36;98515.84;;;23.50;48.49
42669;BME280;29384;42.028;21.388;2022-07-22T00:26:02;98519.88;;;23.56;48.11
42669;BME280;29384;42.028;21.388;2022-07-22T00:28:27;98521.75;;;23.55;47.98
42669;BME280;29384;42.028;21.388;2022-07-22T00:34:14;98518.75;;;23.45;48.14
42669;BME280;29384;42.028;21.388;2022-07-22T00:36:40;98518.97;;;23.40;48.49
42669;BME280;29384;42.028;21.388;2022-07-22T00:39:05;98531.06;;;23.37;48.49
42669;BME280;29384;42.028;21.388;2022-07-22T00:41:31;98523.59;;;23.30;48.47
42669;BME280;29384;42.028;21.388;2022-07-22T00:44:02;98530.47;;;23.31;48.57
42669;BME280;29384;42.028;21.388;2022-07-22T00:46:29;98529.28;;;23.29;48.36
42669;BME280;29384;42.028;21.388;2022-07-22T00:48:55;98526.66;;;23.20;48.52
42669;BME280;29384;42.028;21.388;2022-07-22T00:51:22;98528.47;;;23.28;48.44
42669;BME280;29384;42.028;21.388;2022-07-22T00:53:48;98544.72;;;23.35;48.54
42669;BME280;29384;42.028;21.388;2022-07-22T00:56:16;98538.38;;;23.28;49.26
42669;BME280;29384;42.028;21.388;2022-07-22T00:58:42;98539.72;;;23.01;50.05
42669;BME280;29384;42.028;21.388;2022-07-22T01:04:56;98539.84;;;23.04;50.11
42669;BME280;29384;42.028;21.388;2022-07-22T01:07:22;98547.03;;;23.04;50.38
42669;BME280;29384;42.028;21.388;2022-07-22T01:09:47;98552.47;;;22.95;50.68
42669;BME280;29384;42.028;21.388;2022-07-22T01:12:13;98549.84;;;22.86;50.70
42669;BME280;29384;42.028;21.388;2022-07-22T01:14:39;98549.59;;;22.79;51.34
42669;BME280;29384;42.028;21.388;2022-07-22T01:17:05;98544.91;;;22.76;51.64
42669;BME280;29384;42.028;21.388;2022-07-22T01:19:31;98559.28;;;22.84;51.04
42669;BME280;29384;42.028;21.388;2022-07-22T01:21:56;98551.28;;;22.84;51.11
42669;BME280;29384;42.028;21.388;2022-07-22T01:24:22;98553.97;;;22.75;51.11
42669;BME280;29384;42.028;21.388;2022-07-22T01:26:47;98552.16;;;22.67;51.17
42669;BME280;29384;42.028;21.388;2022-07-22T01:29:13;98550.63;;;22.66;51.29
42669;BME280;29384;42.028;21.388;2022-07-22T01:31:38;98552.81;;;22.64;51.34
42669;BME280;29384;42.028;21.388;2022-07-22T01:34:04;98562.06;;;22.66;51.23
42669;BME280;29384;42.028;21.388;2022-07-22T01:36:30;98561.28;;;22.66;51.36
42669;BME280;29384;42.028;21.388;2022-07-22T01:38:56;98563.22;;;22.57;51.41
42669;BME280;29384;42.028;21.388;2022-07-22T01:41:22;98564.91;;;22.61;51.40
42669;BME280;29384;42.028;21.388;2022-07-22T01:43:47;98562.09;;;22.58;51.35
42669;BME280;29384;42.028;21.388;2022-07-22T01:49:35;98553.56;;;22.43;51.47
42669;BME280;29384;42.028;21.388;2022-07-22T01:52:02;98554.66;;;22.51;51.44
42669;BME280;29384;42.028;21.388;2022-07-22T01:54:27;98552.53;;;22.36;52.03
42669;BME280;29384;42.028;21.388;2022-07-22T01:56:53;98562.25;;;22.32;52.28
42669;BME280;29384;42.028;21.388;2022-07-22T01:59:18;98560.72;;;22.31;52.66
42669;BME280;29384;42.028;21.388;2022-07-22T02:01:44;98553.16;;;22.33;52.37
42669;BME280;29384;42.028;21.388;2022-07-22T02:04:09;98556.66;;;22.25;52.81
42669;BME280;29384;42.028;21.388;2022-07-22T02:06:35;98553.03;;;22.29;52.88
42669;BME280;29384;42.028;21.388;2022-07-22T02:09:00;98557.41;;;22.34;52.53
42669;BME280;29384;42.028;21.388;2022-07-22T02:11:26;98552.88;;;22.26;52.71
42669;BME280;29384;42.028;21.388;2022-07-22T02:13:52;98554.19;;;22.19;53.22
42669;BME280;29384;42.028;21.388;2022-07-22T02:19:39;98562.75;;;22.25;52.91
42669;BME280;29384;42.028;21.388;2022-07-22T02:22:06;98555.69;;;22.29;52.86
42669;BME280;29384;42.028;21.388;2022-07-22T02:24:31;98559.66;;;22.23;53.18
42669;BME280;29384;42.028;21.388;2022-07-22T02:26:57;98568.28;;;22.20;52.98
42669;BME280;29384;42.028;21.388;2022-07-22T02:29:23;98562.94;;;22.11;53.65
42669;BME280;29384;42.028;21.388;2022-07-22T02:31:48;98567.69;;;22.06;54.17
42669;BME280;29384;42.028;21.388;2022-07-22T02:34:14;98566.94;;;21.96;54.10
42669;BME280;29384;42.028;21.388;2022-07-22T02:36:39;98557.56;;;21.90;54.06
42669;BME280;29384;42.028;21.388;2022-07-22T02:39:05;98561.19;;;21.86;54.31
42669;BME280;29384;42.028;21.388;2022-07-22T02:41:31;98568.19;;;21.90;54.29
42669;BME280;29384;42.028;21.388;2022-07-22T02:43:57;98566.50;;;21.94;54.78
42669;BME280;29384;42.028;21.388;2022-07-22T02:49:44;98563.28;;;21.63;55.21
42669;BME280;29384;42.028;21.388;2022-07-22T02:52:09;98563.44;;;21.58;55.24
42669;BME280;29384;42.028;21.388;2022-07-22T02:54:35;98564.88;;;21.46;55.47
42669;BME280;29384;42.028;21.388;2022-07-22T02:57:00;98563.78;;;21.56;55.37
42669;BME280;29384;42.028;21.388;2022-07-22T02:59:26;98557.97;;;21.63;54.86
42669;BME280;29384;42.028;21.388;2022-07-22T03:01:51;98563.31;;;21.54;55.31
42669;BME280;29384;42.028;21.388;2022-07-22T03:04:17;98560.50;;;21.59;55.60
42669;BME280;29384;42.028;21.388;2022-07-22T03:06:42;98561.84;;;21.65;55.27
42669;BME280;29384;42.028;21.388;2022-07-22T03:09:08;98557.16;;;21.71;54.94
42669;BME280;29384;42.028;21.388;2022-07-22T03:11:33;98561.41;;;21.63;55.20
42669;BME280;29384;42.028;21.388;2022-07-22T03:13:59;98570.28;;;21.76;54.89
42669;BME280;29384;42.028;21.388;2022-07-22T03:19:46;98569.63;;;21.88;54.89
42669;BME280;29384;42.028;21.388;2022-07-22T03:22:11;98567.13;;;21.83;54.64
42669;BME280;29384;42.028;21.388;2022-07-22T03:24:37;98574.03;;;21.84;54.55
42669;BME280;29384;42.028;21.388;2022-07-22T03:27:02;98570.75;;;21.78;54.84
42669;BME280;29384;42.028;21.388;2022-07-22T03:29:28;98574.09;;;21.66;55.48
42669;BME280;29384;42.028;21.388;2022-07-22T03:35:15;98569.53;;;21.67;55.23
42669;BME280;29384;42.028;21.388;2022-07-22T03:37:41;98584.88;;;21.70;55.42
42669;BME280;29384;42.028;21.388;2022-07-22T03:40:07;98572.22;;;21.58;55.51
42669;BME280;29384;42.028;21.388;2022-07-22T03:42:34;98584.41;;;21.68;55.77
42669;BME280;29384;42.028;21.388;2022-07-22T03:44:59;98582.50;;;21.77;55.88
42669;BME280;29384;42.028;21.388;2022-07-22T03:47:25;98588.13;;;21.76;55.60
42669;BME280;29384;42.028;21.388;2022-07-22T03:49:51;98585.75;;;21.91;55.25
42669;BME280;29384;42.028;21.388;2022-07-22T03:52:17;98585.75;;;21.91;55.63
42669;BME280;29384;42.028;21.388;2022-07-22T03:54:43;98592.16;;;21.99;55.20
42669;BME280;29384;42.028;21.388;2022-07-22T03:57:09;98584.31;;;22.03;54.96
42669;BME280;29384;42.028;21.388;2022-07-22T03:59:35;98587.56;;;22.17;54.81
42669;BME280;29384;42.028;21.388;2022-07-22T04:05:22;98593.16;;;22.54;54.30
42669;BME280;29384;42.028;21.388;2022-07-22T04:07:47;98594.69;;;22.63;54.16
42669;BME280;29384;42.028;21.388;2022-07-22T04:10:13;98594.09;;;22.58;54.27
42669;BME280;29384;42.028;21.388;2022-07-22T04:12:39;98580.47;;;22.51;54.25
42669;BME280;29384;42.028;21.388;2022-07-22T04:15:06;98593.06;;;22.71;54.31
42669;BME280;29384;42.028;21.388;2022-07-22T04:17:32;98588.09;;;22.90;53.91
42669;BME280;29384;42.028;21.388;2022-07-22T04:19:58;98588.63;;;23.05;53.96
42669;BME280;29384;42.028;21.388;2022-07-22T04:22:26;98589.00;;;23.16;53.34
42669;BME280;29384;42.028;21.388;2022-07-22T04:24:52;98582.66;;;23.08;53.10
42669;BME280;29384;42.028;21.388;2022-07-22T04:27:17;98590.50;;;23.25;52.86
42669;BME280;29384;42.028;21.388;2022-07-22T04:29:43;98581.31;;;23.35;52.66
42669;BME280;29384;42.028;21.388;2022-07-22T04:35:30;98592.91;;;23.72;52.06
42669;BME280;29384;42.028;21.388;2022-07-22T04:37:55;98588.47;;;23.89;51.38
42669;BME280;29384;42.028;21.388;2022-07-22T04:40:21;98595.63;;;23.97;50.93
42669;BME280;29384;42.028;21.388;2022-07-22T04:42:46;98586.50;;;24.22;49.78
42669;BME280;29384;42.028;21.388;2022-07-22T04:45:12;98585.28;;;24.20;50.61
42669;BME280;29384;42.028;21.388;2022-07-22T04:47:37;98596.44;;;24.46;49.60
42669;BME280;29384;42.028;21.388;2022-07-22T04:50:03;98600.44;;;24.65;49.11
42669;BME280;29384;42.028;21.388;2022-07-22T04:52:29;98598.75;;;24.72;49.17
42669;BME280;29384;42.028;21.388;2022-07-22T04:54:54;98594.38;;;24.92;48.52
42669;BME280;29384;42.028;21.388;2022-07-22T04:57:21;98603.34;;;25.12;47.96
42669;BME280;29384;42.028;21.388;2022-07-22T04:59:46;98600.50;;;25.33;48.03
42669;BME280;29384;42.028;21.388;2022-07-22T05:05:33;98605.84;;;25.77;46.66
42669;BME280;29384;42.028;21.388;2022-07-22T05:07:59;98599.34;;;25.90;46.53
42669;BME280;29384;42.028;21.388;2022-07-22T05:10:25;98608.84;;;26.19;46.68
42669;BME280;29384;42.028;21.388;2022-07-22T05:12:50;98602.28;;;26.33;46.21
42669;BME280;29384;42.028;21.388;2022-07-22T05:15:16;98601.19;;;26.69;45.47
42669;BME280;29384;42.028;21.388;2022-07-22T05:17:41;98602.47;;;26.75;44.62
42669;BME280;29384;42.028;21.388;2022-07-22T05:20:07;98610.09;;;26.92;44.67
42669;BME280;29384;42.028;21.388;2022-07-22T05:22:32;98606.94;;;27.06;44.04
42669;BME280;29384;42.028;21.388;2022-07-22T05:24:58;98610.22;;;27.15;44.26
42669;BME280;29384;42.028;21.388;2022-07-22T05:27:23;98610.34;;;27.23;43.95
42669;BME280;29384;42.028;21.388;2022-07-22T05:29:49;98599.88;;;27.56;43.39
42669;BME280;29384;42.028;21.388;2022-07-22T05:35:36;98608.00;;;28.02;43.16
42669;BME280;29384;42.028;21.388;2022-07-22T05:38:01;98612.06;;;28.19;42.76
42669;BME280;29384;42.028;21.388;2022-07-22T05:40:27;98613.34;;;28.25;42.10
42669;BME280;29384;42.028;21.388;2022-07-22T05:42:53;98615.16;;;28.44;41.93
42669;BME280;29384;42.028;21.388;2022-07-22T05:45:19;98612.19;;;28.49;41.74
42669;BME280;29384;42.028;21.388;2022-07-22T05:47:44;98612.78;;;28.66;41.35
42669;BME280;29384;42.028;21.388;2022-07-22T05:50:10;98615.47;;;28.66;41.30
42669;BME280;29384;42.028;21.388;2022-07-22T05:52:36;98611.94;;;28.88;41.44
42669;BME280;29384;42.028;21.388;2022-07-22T05:55:02;98613.59;;;28.96;41.34
42669;BME280;29384;42.028;21.388;2022-07-22T05:57:28;98614.94;;;29.10;40.73
42669;BME280;29384;42.028;21.388;2022-07-22T05:59:53;98610.59;;;29.35;40.45
42669;BME280;29384;42.028;21.388;2022-07-22T06:05:41;98608.72;;;29.39;40.48
42669;BME280;29384;42.028;21.388;2022-07-22T06:08:06;98606.84;;;29.43;39.55
42669;BME280;29384;42.028;21.388;2022-07-22T06:10:32;98614.25;;;29.53;39.04
42669;BME280;29384;42.028;21.388;2022-07-22T06:12:58;98605.25;;;29.72;40.10
42669;BME280;29384;42.028;21.388;2022-07-22T06:15:23;98599.81;;;29.69;40.29
42669;BME280;29384;42.028;21.388;2022-07-22T06:17:49;98612.22;;;29.77;39.71
42669;BME280;29384;42.028;21.388;2022-07-22T06:20:14;98604.94;;;29.81;39.46
42669;BME280;29384;42.028;21.388;2022-07-22T06:22:40;98605.41;;;29.90;39.46
42669;BME280;29384;42.028;21.388;2022-07-22T06:25:06;98599.72;;;30.02;39.32
42669;BME280;29384;42.028;21.388;2022-07-22T06:27:33;98600.72;;;30.32;37.94
42669;BME280;29384;42.028;21.388;2022-07-22T06:29:58;98610.91;;;30.56;37.79
42669;BME280;29384;42.028;21.388;2022-07-22T06:36:14;98612.31;;;31.02;36.58
42669;BME280;29384;42.028;21.388;2022-07-22T06:38:40;98598.03;;;30.98;37.20
42669;BME280;29384;42.028;21.388;2022-07-22T06:41:05;98603.13;;;31.17;37.32
42669;BME280;29384;42.028;21.388;2022-07-22T06:43:31;98609.78;;;31.48;37.16
42669;BME280;29384;42.028;21.388;2022-07-22T06:45:56;98604.41;;;31.62;35.31
42669;BME280;29384;42.028;21.388;2022-07-22T06:48:22;98609.03;;;31.51;36.63
42669;BME280;29384;42.028;21.388;2022-07-22T06:50:48;98604.38;;;31.45;35.88
42669;BME280;29384;42.028;21.388;2022-07-22T06:53:13;98600.94;;;31.62;36.34
42669;BME280;29384;42.028;21.388;2022-07-22T06:55:39;98603.69;;;32.12;36.96
42669;BME280;29384;42.028;21.388;2022-07-22T06:58:04;98606.38;;;32.23;35.61
42669;BME280;29384;42.028;21.388;2022-07-22T07:00:30;98596.34;;;32.12;36.20
42669;BME280;29384;42.028;21.388;2022-07-22T07:06:44;98600.94;;;31.76;35.25
42669;BME280;29384;42.028;21.388;2022-07-22T07:09:10;98603.69;;;31.87;35.93
42669;BME280;29384;42.028;21.388;2022-07-22T07:11:35;98590.94;;;32.23;35.94
42669;BME280;29384;42.028;21.388;2022-07-22T07:14:01;98590.16;;;32.33;34.77
42669;BME280;29384;42.028;21.388;2022-07-22T07:16:27;98596.69;;;32.40;34.73
42669;BME280;29384;42.028;21.388;2022-07-22T07:18:52;98601.78;;;32.09;35.58
42669;BME280;29384;42.028;21.388;2022-07-22T07:21:18;98595.16;;;32.53;35.78
42669;BME280;29384;42.028;21.388;2022-07-22T07:23:43;98599.28;;;32.86;34.59
42669;BME280;29384;42.028;21.388;2022-07-22T07:26:09;98596.97;;;32.95;33.98
42669;BME280;29384;42.028;21.388;2022-07-22T07:28:35;98601.88;;;33.25;34.21
42669;BME280;29384;42.028;21.388;2022-07-22T07:31:00;98604.22;;;33.16;32.91
42669;BME280;29384;42.028;21.388;2022-07-22T07:33:26;98601.38;;;33.45;32.93
42669;BME280;29384;42.028;21.388;2022-07-22T07:35:52;98596.56;;;33.70;33.09
42669;BME280;29384;42.028;21.388;2022-07-22T07:38:17;98594.34;;;33.58;32.95
42669;BME280;29384;42.028;21.388;2022-07-22T07:40:43;98593.22;;;33.52;31.43
42669;BME280;29384;42.028;21.388;2022-07-22T07:43:08;98606.63;;;33.73;33.28
42669;BME280;29384;42.028;21.388;2022-07-22T07:45:35;98592.56;;;33.89;31.56
42669;BME280;29384;42.028;21.388;2022-07-22T07:51:23;98599.41;;;34.08;33.04
42669;BME280;29384;42.028;21.388;2022-07-22T07:53:48;98599.94;;;33.22;31.85
42669;BME280;29384;42.028;21.388;2022-07-22T07:56:14;98602.53;;;33.47;31.39
42669;BME280;29384;42.028;21.388;2022-07-22T07:58:39;98593.91;;;33.63;30.56
42669;BME280;29384;42.028;21.388;2022-07-22T08:01:05;98594.41;;;34.03;30.36
42669;BME280;29384;42.028;21.388;2022-07-22T08:03:31;98596.69;;;34.08;31.24
42669;BME280;29384;42.028;21.388;2022-07-22T08:05:56;98590.47;;;34.11;31.08
42669;BME280;29384;42.028;21.388;2022-07-22T08:08:24;98595.94;;;34.04;29.97
42669;BME280;29384;42.028;21.388;2022-07-22T08:10:50;98587.00;;;34.07;30.75
42669;BME280;29384;42.028;21.388;2022-07-22T08:13:16;98588.28;;;34.37;30.75
42669;BME280;29384;42.028;21.388;2022-07-22T08:15:41;98579.69;;;34.42;29.12
42669;BME280;29384;42.028;21.388;2022-07-22T08:21:29;98581.66;;;35.10;31.04
42669;BME280;29384;42.028;21.388;2022-07-22T08:23:54;98578.84;;;35.44;29.17
42669;BME280;29384;42.028;21.388;2022-07-22T08:26:20;98582.13;;;35.32;27.97
42669;BME280;29384;42.028;21.388;2022-07-22T08:28:46;98586.09;;;35.54;30.47
42669;BME280;29384;42.028;21.388;2022-07-22T08:31:11;98586.09;;;35.54;27.98
42669;BME280;29384;42.028;21.388;2022-07-22T08:33:37;98585.81;;;35.72;27.92
42669;BME280;29384;42.028;21.388;2022-07-22T08:36:03;98577.72;;;35.92;27.48
42669;BME280;29384;42.028;21.388;2022-07-22T08:38:29;98593.41;;;36.08;27.05
42669;BME280;29384;42.028;21.388;2022-07-22T08:40:55;98588.63;;;36.16;26.05
42669;BME280;29384;42.028;21.388;2022-07-22T08:43:22;98588.91;;;36.21;25.62
42669;BME280;29384;42.028;21.388;2022-07-22T08:45:48;98587.19;;;36.31;25.67
42669;BME280;29384;42.028;21.388;2022-07-22T08:51:35;98582.75;;;36.41;25.77
42669;BME280;29384;42.028;21.388;2022-07-22T08:54:01;98582.63;;;36.48;25.37
42669;BME280;29384;42.028;21.388;2022-07-22T08:56:27;98593.56;;;36.44;25.04
42669;BME280;29384;42.028;21.388;2022-07-22T08:58:52;98583.66;;;36.54;23.95
42669;BME280;29384;42.028;21.388;2022-07-22T09:01:18;98591.84;;;36.54;25.34
42669;BME280;29384;42.028;21.388;2022-07-22T09:06:18;98591.16;;;36.70;24.52
42669;BME280;29384;42.028;21.388;2022-07-22T09:08:57;98593.03;;;36.53;26.11
42669;BME280;29384;42.028;21.388;2022-07-22T09:11:25;98578.56;;;36.76;23.83
42669;BME280;29384;42.028;21.388;2022-07-22T09:13:52;98592.13;;;36.59;25.15
42669;BME280;29384;42.028;21.388;2022-07-22T09:16:43;98587.66;;;36.69;24.60
42669;BME280;29384;42.028;21.388;2022-07-22T09:19:10;98574.38;;;36.71;24.47
42669;BME280;29384;42.028;21.388;2022-07-22T09:21:39;98578.22;;;36.74;25.29
42669;BME280;29384;42.028;21.388;2022-07-22T09:24:05;98568.44;;;36.76;26.33
42669;BME280;29384;42.028;21.388;2022-07-22T09:26:36;98565.13;;;36.85;26.07
42669;BME280;29384;42.028;21.388;2022-07-22T09:29:03;98562.81;;;37.03;24.56
42669;BME280;29384;42.028;21.388;2022-07-22T09:31:31;98566.19;;;36.91;25.51
42669;BME280;29384;42.028;21.388;2022-07-22T09:33:58;98569.66;;;36.92;24.75
42669;BME280;29384;42.028;21.388;2022-07-22T09:36:25;98569.97;;;36.97;24.53
42669;BME280;29384;42.028;21.388;2022-07-22T09:38:50;98554.81;;;36.96;23.67
42669;BME280;29384;42.028;21.388;2022-07-22T09:41:16;98549.56;;;37.05;24.88
42669;BME280;29384;42.028;21.388;2022-07-22T09:43:42;98552.97;;;37.09;27.23
42669;BME280;29384;42.028;21.388;2022-07-22T09:46:09;98550.25;;;37.09;24.78
42669;BME280;29384;42.028;21.388;2022-07-22T09:51:56;98532.41;;;36.69;26.24
42669;BME280;29384;42.028;21.388;2022-07-22T09:54:22;98544.38;;;36.91;27.15
42669;BME280;29384;42.028;21.388;2022-07-22T09:56:48;98540.97;;;37.07;25.80
42669;BME280;29384;42.028;21.388;2022-07-22T09:59:13;98533.81;;;37.13;25.84
42669;BME280;29384;42.028;21.388;2022-07-22T10:01:39;98534.56;;;37.14;24.32
42669;BME280;29384;42.028;21.388;2022-07-22T10:04:06;98534.72;;;37.06;24.41
42669;BME280;29384;42.028;21.388;2022-07-22T10:06:32;98539.00;;;37.07;25.64
42669;BME280;29384;42.028;21.388;2022-07-22T10:08:59;98517.66;;;36.86;26.82
42669;BME280;29384;42.028;21.388;2022-07-22T10:11:24;98526.16;;;36.88;25.52
42669;BME280;29384;42.028;21.388;2022-07-22T10:13:50;98526.28;;;36.65;26.28
42669;BME280;29384;42.028;21.388;2022-07-22T10:16:17;98526.53;;;36.70;26.05
42669;BME280;29384;42.028;21.388;2022-07-22T10:22:04;98520.44;;;36.82;25.89
42669;BME280;29384;42.028;21.388;2022-07-22T10:24:30;98520.84;;;36.81;25.20
42669;BME280;29384;42.028;21.388;2022-07-22T10:26:57;98528.78;;;36.92;25.90
42669;BME280;29384;42.028;21.388;2022-07-22T10:29:24;98513.53;;;36.78;24.07
42669;BME280;29384;42.028;21.388;2022-07-22T10:32:32;98518.44;;;36.67;25.41
42669;BME280;29384;42.028;21.388;2022-07-22T10:40:17;98509.34;;;36.73;24.86
42669;BME280;29384;42.028;21.388;2022-07-22T10:45:27;98507.16;;;36.84;24.22
42669;BME280;29384;42.028;21.388;2022-07-22T10:47:57;98509.88;;;36.84;23.23
42669;BME280;29384;42.028;21.388;2022-07-22T10:53:08;98510.63;;;36.69;21.26
42669;BME280;29384;42.028;21.388;2022-07-22T10:55:35;98504.56;;;36.61;20.95
42669;BME280;29384;42.028;21.388;2022-07-22T11:01:03;98501.81;;;36.41;25.93
42669;BME280;29384;42.028;21.388;2022-07-22T11:03:31;98499.91;;;36.38;25.93
42669;BME280;29384;42.028;21.388;2022-07-22T11:05:57;98489.19;;;36.31;27.06
42669;BME280;29384;42.028;21.388;2022-07-22T11:08:37;98490.22;;;36.17;26.41
42669;BME280;29384;42.028;21.388;2022-07-22T11:11:03;98492.47;;;36.22;25.70
42669;BME280;29384;42.028;21.388;2022-07-22T11:13:33;98488.13;;;36.25;25.35
42669;BME280;29384;42.028;21.388;2022-07-22T11:16:19;98487.28;;;36.28;25.82
42669;BME280;29384;42.028;21.388;2022-07-22T11:18:47;98493.31;;;36.19;25.79
42669;BME280;29384;42.028;21.388;2022-07-22T11:21:15;98491.47;;;36.12;28.13
42669;BME280;29384;42.028;21.388;2022-07-22T11:23:42;98486.88;;;36.09;26.70
42669;BME280;29384;42.028;21.388;2022-07-22T11:26:10;98484.41;;;36.15;27.52
42669;BME280;29384;42.028;21.388;2022-07-22T11:28:42;98478.13;;;36.18;27.17
42669;BME280;29384;42.028;21.388;2022-07-22T11:31:10;98484.69;;;36.21;27.14
42669;BME280;29384;42.028;21.388;2022-07-22T11:33:38;98486.09;;;36.29;25.40
42669;BME280;29384;42.028;21.388;2022-07-22T11:36:06;98489.03;;;36.38;23.13
42669;BME280;29384;42.028;21.388;2022-07-22T11:38:42;98479.66;;;36.39;23.03
42669;BME280;29384;42.028;21.388;2022-07-22T11:41:09;98474.03;;;36.30;23.08
42669;BME280;29384;42.028;21.388;2022-07-22T11:43:39;98470.94;;;36.28;23.47
42669;BME280;29384;42.028;21.388;2022-07-22T11:46:04;98473.66;;;36.08;24.46
42669;BME280;29384;42.028;21.388;2022-07-22T11:48:30;98464.88;;;36.00;23.62
42669;BME280;29384;42.028;21.388;2022-07-22T11:51:02;98464.41;;;36.05;23.83
42669;BME280;29384;42.028;21.388;2022-07-22T11:53:28;98440.34;;;35.80;26.79
42669;BME280;29384;42.028;21.388;2022-07-22T11:55:57;98465.66;;;35.97;25.27
42669;BME280;29384;42.028;21.388;2022-07-22T12:01:01;98464.50;;;35.98;27.11
42669;BME280;29384;42.028;21.388;2022-07-22T12:03:27;98462.44;;;36.06;27.07
42669;BME280;29384;42.028;21.388;2022-07-22T12:05:54;98467.38;;;36.11;25.63
42669;BME280;29384;42.028;21.388;2022-07-22T12:08:20;98466.63;;;36.10;26.53
42669;BME280;29384;42.028;21.388;2022-07-22T12:10:45;98456.56;;;36.07;26.38
42669;BME280;29384;42.028;21.388;2022-07-22T12:13:11;98454.34;;;36.02;26.89
42669;BME280;29384;42.028;21.388;2022-07-22T12:15:39;98455.88;;;36.03;25.15
42669;BME280;29384;42.028;21.388;2022-07-22T12:18:21;98455.16;;;35.99;24.56
42669;BME280;29384;42.028;21.388;2022-07-22T12:20:48;98452.69;;;35.85;24.25
42669;BME280;29384;42.028;21.388;2022-07-22T12:23:14;98445.25;;;35.65;27.17
42669;BME280;29384;42.028;21.388;2022-07-22T12:25:54;98436.28;;;35.68;25.13
42669;BME280;29384;42.028;21.388;2022-07-22T12:28:20;98439.34;;;35.47;24.96
42669;BME280;29384;42.028;21.388;2022-07-22T12:30:47;98429.78;;;35.39;25.28
42669;BME280;29384;42.028;21.388;2022-07-22T12:33:17;98431.53;;;35.26;24.93
42669;BME280;29384;42.028;21.388;2022-07-22T12:35:44;98436.97;;;35.26;24.98
42669;BME280;29384;42.028;21.388;2022-07-22T12:38:10;98437.69;;;35.30;25.54
42669;BME280;29384;42.028;21.388;2022-07-22T12:40:37;98430.59;;;35.36;25.54
42669;BME280;29384;42.028;21.388;2022-07-22T12:43:04;98424.72;;;35.41;24.55
42669;BME280;29384;42.028;21.388;2022-07-22T12:45:32;98414.03;;;35.50;26.96
42669;BME280;29384;42.028;21.388;2022-07-22T12:53:02;98410.63;;;35.46;24.79
42669;BME280;29384;42.028;21.388;2022-07-22T12:55:30;98416.19;;;35.39;24.14
42669;BME280;29384;42.028;21.388;2022-07-22T12:57:55;98400.25;;;35.41;24.46
42669;BME280;29384;42.028;21.388;2022-07-22T13:00:24;98395.56;;;35.41;24.95
42669;BME280;29384;42.028;21.388;2022-07-22T13:02:51;98391.50;;;35.53;24.53
42669;BME280;29384;42.028;21.388;2022-07-22T13:05:17;98401.16;;;35.78;23.86
42669;BME280;29384;42.028;21.388;2022-07-22T13:07:43;98393.28;;;35.83;23.77
42669;BME280;29384;42.028;21.388;2022-07-22T13:10:10;98384.59;;;35.68;24.79
42669;BME280;29384;42.028;21.388;2022-07-22T13:12:35;98383.00;;;35.48;23.93
42669;BME280;29384;42.028;21.388;2022-07-22T13:15:01;98393.78;;;35.55;23.98
42669;BME280;29384;42.028;21.388;2022-07-22T13:17:27;98390.66;;;35.56;23.98
42669;BME280;29384;42.028;21.388;2022-07-22T13:19:53;98387.44;;;35.61;25.00
42669;BME280;29384;42.028;21.388;2022-07-22T13:22:18;98395.53;;;35.65;24.17
42669;BME280;29384;42.028;21.388;2022-07-22T13:24:44;98398.13;;;35.52;23.71
42669;BME280;29384;42.028;21.388;2022-07-22T13:27:09;98382.25;;;35.47;25.04
42669;BME280;29384;42.028;21.388;2022-07-22T13:29:35;98378.69;;;35.50;26.05
42669;BME280;29384;42.028;21.388;2022-07-22T13:32:00;98375.63;;;35.48;27.22
42669;BME280;29384;42.028;21.388;2022-07-22T13:37:47;98372.81;;;35.55;27.29
42669;BME280;29384;42.028;21.388;2022-07-22T13:40:14;98375.19;;;35.53;26.13
42669;BME280;29384;42.028;21.388;2022-07-22T13:42:40;98378.38;;;35.48;26.32
42669;BME280;29384;42.028;21.388;2022-07-22T13:45:06;98366.69;;;35.48;26.26
42669;BME280;29384;42.028;21.388;2022-07-22T13:47:31;98373.31;;;35.47;26.10
42669;BME280;29384;42.028;21.388;2022-07-22T13:49:57;98374.16;;;35.43;24.90
42669;BME280;29384;42.028;21.388;2022-07-22T13:52:24;98367.72;;;35.57;23.72
42669;BME280;29384;42.028;21.388;2022-07-22T13:54:49;98361.81;;;35.62;24.28
42669;BME280;29384;42.028;21.388;2022-07-22T13:57:15;98371.00;;;35.68;23.42
42669;BME280;29384;42.028;21.388;2022-07-22T13:59:41;98370.88;;;35.96;22.37
42669;BME280;29384;42.028;21.388;2022-07-22T14:02:07;98379.28;;;36.05;22.05
42669;BME280;29384;42.028;21.388;2022-07-22T14:07:54;98372.41;;;35.77;23.92
42669;BME280;29384;42.028;21.388;2022-07-22T14:10:19;98375.03;;;35.60;23.81
42669;BME280;29384;42.028;21.388;2022-07-22T14:12:45;98364.75;;;35.48;22.28
42669;BME280;29384;42.028;21.388;2022-07-22T14:15:11;98374.53;;;35.65;22.88
42669;BME280;29384;42.028;21.388;2022-07-22T14:17:37;98373.81;;;35.85;22.41
42669;BME280;29384;42.028;21.388;2022-07-22T14:20:04;98372.47;;;35.73;22.82
42669;BME280;29384;42.028;21.388;2022-07-22T14:22:32;98366.00;;;35.87;22.76
42669;BME280;29384;42.028;21.388;2022-07-22T14:24:57;98365.09;;;35.74;23.99